createdAt,value
2018-07-12T00:00:10.174Z,4.67
2018-07-12T00:02:39.346Z,3.90
2018-07-12T00:05:09.668Z,3.83
2018-07-12T00:07:37.855Z,3.90
2018-07-12T00:10:08.264Z,3.93
2018-07-12T00:12:37.310Z,4.43
2018-07-12T00:15:14.731Z,4.00
2018-07-12T00:17:43.174Z,4.03
2018-07-12T00:20:15.580Z,4.43
2018-07-12T00:22:45.150Z,3.67
2018-07-12T00:25:13.314Z,4.37
2018-07-12T00:27:41.495Z,4.00
2018-07-12T00:30:14.727Z,4.40
2018-07-12T00:32:42.930Z,4.60
2018-07-12T00:35:12.993Z,3.90
2018-07-12T00:37:41.176Z,4.10
2018-07-12T00:40:09.692Z,3.77
2018-07-12T00:42:37.861Z,4.10
2018-07-12T00:45:12.297Z,4.27
2018-07-12T00:47:40.864Z,4.30
2018-07-12T00:50:14.252Z,4.20
2018-07-12T00:52:43.116Z,5.47
2018-07-12T00:55:11.295Z,4.33
2018-07-12T00:57:39.469Z,5.03
2018-07-12T01:00:13.627Z,4.50
2018-07-12T01:02:42.141Z,3.80
2018-07-12T01:05:13.619Z,4.70
2018-07-12T01:07:41.797Z,4.30
2018-07-12T01:10:10.843Z,4.37
2018-07-12T01:12:39.024Z,5.00
2018-07-12T01:15:14.088Z,4.93
2018-07-12T01:17:42.247Z,3.93
2018-07-12T01:20:10.444Z,4.27
2018-07-12T01:22:38.612Z,4.07
2018-07-12T01:25:14.930Z,4.50
2018-07-12T01:27:43.096Z,4.83
2018-07-12T01:30:11.926Z,4.17
2018-07-12T01:32:40.104Z,4.07
2018-07-12T01:35:15.734Z,4.40
2018-07-12T01:37:43.907Z,4.63
2018-07-12T01:40:13.724Z,4.77
2018-07-12T01:42:41.984Z,4.03
2018-07-12T01:45:14.590Z,4.47
2018-07-12T01:47:42.787Z,4.73
2018-07-12T01:50:13.819Z,5.37
2018-07-12T01:52:41.993Z,4.80
2018-07-12T01:55:10.213Z,4.53
2018-07-12T01:57:38.381Z,4.47
2018-07-12T02:00:10.673Z,5.07
2018-07-12T02:02:38.840Z,4.63
2018-07-12T02:05:07.615Z,4.70
2018-07-12T02:07:35.776Z,4.50
2018-07-12T02:10:07.421Z,4.60
2018-07-12T02:12:35.649Z,5.13
2018-07-12T02:15:07.449Z,5.00
2018-07-12T02:17:35.611Z,4.57
2018-07-12T02:20:04.132Z,4.40
2018-07-12T02:22:43.520Z,4.83
2018-07-12T02:25:12.345Z,5.57
2018-07-12T02:27:40.591Z,4.20
2018-07-12T02:30:08.932Z,5.43
2018-07-12T02:32:40.549Z,4.83
2018-07-12T02:35:08.932Z,4.10
2018-07-12T02:37:37.308Z,5.30
2018-07-12T02:40:07.528Z,5.00
2018-07-12T02:42:35.740Z,4.67
2018-07-12T02:45:11.170Z,5.43
2018-07-12T02:47:40.796Z,4.83
2018-07-12T02:50:08.984Z,4.60
2018-07-12T02:52:37.164Z,5.70
2018-07-12T02:55:13.170Z,5.07
2018-07-12T02:57:41.360Z,4.60
2018-07-12T03:00:09.536Z,5.10
2018-07-12T03:02:37.955Z,5.10
2018-07-12T03:05:11.503Z,5.50
2018-07-12T03:07:44.984Z,5.60
2018-07-12T03:10:17.659Z,5.70
2018-07-12T03:12:46.065Z,5.93
2018-07-12T03:15:14.252Z,6.27
2018-07-12T03:17:43.804Z,5.37
2018-07-12T03:20:12.030Z,5.47
2018-07-12T03:22:40.189Z,6.00
2018-07-12T03:25:16.712Z,5.10
2018-07-12T03:27:44.892Z,5.70
2018-07-12T03:30:13.509Z,5.63
2018-07-12T03:32:41.689Z,5.80
2018-07-12T03:35:09.884Z,5.63
2018-07-12T03:37:38.064Z,5.70
2018-07-12T03:40:13.418Z,6.13
2018-07-12T03:42:42.233Z,6.10
2018-07-12T03:45:14.773Z,5.80
2018-07-12T03:47:43.452Z,5.23
2018-07-12T03:50:11.656Z,5.73
2018-07-12T03:52:39.862Z,6.37
2018-07-12T03:55:14.865Z,5.50
2018-07-12T03:57:46.253Z,5.30
2018-07-12T04:00:14.490Z,5.77
2018-07-12T04:02:42.664Z,5.60
2018-07-12T04:05:13.614Z,5.20
2018-07-12T04:07:41.799Z,6.10
2018-07-12T04:10:09.985Z,5.97
2018-07-12T04:12:38.164Z,5.90
2018-07-12T04:15:06.337Z,6.27
2018-07-12T04:17:35.214Z,6.10
2018-07-12T04:20:11.103Z,5.80
2018-07-12T04:22:39.282Z,5.20
2018-07-12T04:25:08.583Z,6.20
2018-07-12T04:27:36.767Z,5.53
2018-07-12T04:30:09.452Z,6.07
2018-07-12T04:32:38.672Z,5.70
2018-07-12T04:35:12.848Z,5.70
2018-07-12T04:37:41.031Z,5.87
2018-07-12T04:40:12.723Z,5.73
2018-07-12T04:42:40.896Z,6.67
2018-07-12T04:45:12.492Z,5.17
2018-07-12T04:47:40.676Z,5.43
2018-07-12T04:50:14.151Z,5.13
2018-07-12T04:52:42.331Z,5.37
2018-07-12T04:55:19.101Z,4.83
2018-07-12T04:57:47.261Z,5.67
2018-07-12T05:00:15.460Z,5.00
2018-07-12T05:02:43.653Z,5.20
2018-07-12T05:05:14.895Z,6.63
2018-07-12T05:07:43.071Z,4.90
2018-07-12T05:10:14.118Z,6.20
2018-07-12T05:12:42.279Z,6.43
2018-07-12T05:15:10.484Z,5.87
2018-07-12T05:17:38.672Z,7.03
2018-07-12T05:20:14.376Z,7.13
2018-07-12T05:22:42.556Z,6.50
2018-07-12T05:25:10.734Z,6.93
2018-07-12T05:27:38.925Z,5.40
2018-07-12T05:30:07.155Z,6.33
2018-07-12T05:32:35.320Z,5.10
2018-07-12T05:35:09.260Z,6.37
2018-07-12T05:37:39.789Z,7.30
2018-07-12T05:40:13.836Z,5.87
2018-07-12T05:42:43.216Z,6.60
2018-07-12T05:45:15.461Z,6.07
2018-07-12T05:47:44.820Z,6.00
2018-07-12T05:50:14.435Z,5.20
2018-07-12T05:52:43.816Z,5.43
2018-07-12T05:55:13.256Z,5.70
2018-07-12T05:57:42.588Z,6.10
2018-07-12T06:00:14.841Z,6.37
2018-07-12T06:02:44.180Z,5.57
2018-07-12T06:05:13.529Z,5.70
2018-07-12T06:07:42.855Z,5.70
2018-07-12T06:10:13.977Z,5.33
2018-07-12T06:12:43.413Z,5.33
2018-07-12T06:15:14.327Z,5.80
2018-07-12T06:17:43.690Z,4.97
2018-07-12T06:20:16.924Z,5.07
2018-07-12T06:22:46.297Z,4.20
2018-07-12T06:25:15.635Z,4.80
2018-07-12T06:27:45.058Z,5.10
2018-07-12T06:30:14.422Z,4.50
2018-07-12T06:32:43.844Z,4.13
2018-07-12T06:35:15.628Z,5.30
2018-07-12T06:37:46.155Z,4.97
2018-07-12T06:40:21.253Z,4.83
2018-07-12T06:42:51.679Z,5.60
2018-07-12T06:45:21.012Z,4.50
2018-07-12T06:47:50.377Z,4.20
2018-07-12T06:50:19.752Z,5.50
2018-07-12T06:52:50.265Z,4.57
2018-07-12T06:55:19.832Z,4.93
2018-07-12T06:57:49.547Z,5.30
2018-07-12T07:00:18.931Z,5.43
2018-07-12T07:02:48.252Z,5.37
2018-07-12T07:05:18.530Z,5.70
2018-07-12T07:07:47.885Z,5.23
2018-07-12T07:10:17.217Z,5.37
2018-07-12T07:12:46.552Z,5.57
2018-07-12T07:15:17.085Z,4.70
2018-07-12T07:17:46.424Z,5.57
2018-07-12T07:20:16.741Z,5.33
2018-07-12T07:22:46.239Z,5.00
2018-07-12T07:25:17.300Z,4.97
2018-07-12T07:27:46.696Z,4.53
2018-07-12T07:30:16.076Z,6.57
2018-07-12T07:32:45.424Z,5.90
2018-07-12T07:35:16.645Z,4.80
2018-07-12T07:37:46.031Z,4.30
2018-07-12T07:40:15.468Z,5.17
2018-07-12T07:42:45.052Z,3.93
2018-07-12T07:45:14.561Z,3.80
2018-07-12T07:47:43.904Z,3.90
2018-07-12T07:50:17.195Z,4.83
2018-07-12T07:52:46.513Z,3.87
2018-07-12T07:55:16.523Z,4.50
2018-07-12T07:57:46.493Z,4.00
2018-07-12T08:00:17.018Z,5.00
2018-07-12T08:02:46.340Z,4.10
2018-07-12T08:05:16.125Z,5.10
2018-07-12T08:07:46.036Z,4.97
2018-07-12T08:10:15.634Z,4.20
2018-07-12T08:12:45.544Z,4.53
2018-07-12T08:15:14.968Z,4.80
2018-07-12T08:17:44.316Z,4.43
2018-07-12T08:20:13.702Z,5.00
2018-07-12T08:22:43.081Z,5.23
2018-07-12T08:25:18.448Z,4.80
2018-07-12T08:27:58.812Z,5.43
2018-07-12T08:30:28.149Z,4.93
2018-07-12T08:32:57.547Z,4.70
2018-07-12T08:35:26.912Z,5.63
2018-07-12T08:37:56.279Z,5.70
2018-07-12T08:40:25.755Z,4.80
2018-07-12T08:42:56.306Z,3.90
2018-07-12T08:45:27.129Z,4.73
2018-07-12T08:47:57.397Z,5.50
2018-07-12T08:50:26.789Z,4.43
2018-07-12T08:52:56.175Z,4.43
2018-07-12T08:55:25.509Z,5.23
2018-07-12T08:57:54.912Z,6.30
2018-07-12T09:00:24.325Z,5.07
2018-07-12T09:02:53.729Z,4.90
2018-07-12T09:05:23.299Z,6.70
2018-07-12T09:07:53.246Z,5.60
2018-07-12T09:10:22.589Z,5.77
2018-07-12T09:12:51.941Z,5.60
2018-07-12T09:15:21.281Z,4.87
2018-07-12T09:17:50.665Z,5.60
2018-07-12T09:20:20.001Z,5.27
2018-07-12T09:22:49.819Z,4.83
2018-07-12T09:25:19.220Z,4.57
2018-07-12T09:27:48.991Z,5.00
2018-07-12T09:30:18.340Z,5.07
2018-07-12T09:32:47.661Z,5.03
2018-07-12T09:35:18.429Z,4.70
2018-07-12T09:37:47.802Z,4.73
2018-07-12T09:40:17.905Z,5.27
2018-07-12T09:42:47.611Z,3.73
2018-07-12T09:45:17.888Z,4.67
2018-07-12T09:47:47.250Z,4.57
2018-07-12T09:50:16.612Z,5.43
2018-07-12T09:52:45.967Z,4.70
2018-07-12T09:55:15.328Z,4.00
2018-07-12T09:57:55.772Z,4.10
2018-07-12T10:00:30.200Z,4.43
2018-07-12T10:03:04.865Z,3.93
2018-07-12T10:05:39.429Z,4.43
2018-07-12T10:08:13.949Z,4.37
2018-07-12T10:12:49.937Z,3.93
2018-07-12T10:15:24.477Z,3.90
2018-07-12T10:18:01.092Z,3.87
2018-07-12T10:20:30.438Z,3.33
2018-07-12T10:22:59.812Z,3.33
2018-07-12T10:25:29.168Z,3.50
2018-07-12T10:27:58.493Z,4.73
2018-07-12T10:30:27.840Z,4.30
2018-07-12T10:32:57.244Z,4.13
2018-07-12T10:35:26.592Z,3.60
2018-07-12T10:37:55.911Z,4.07
2018-07-12T10:40:25.292Z,3.80
2018-07-12T10:42:54.625Z,4.03
2018-07-12T10:45:23.967Z,3.63
2018-07-12T10:47:53.497Z,3.70
2018-07-12T10:50:23.300Z,3.30
2018-07-12T10:52:52.701Z,3.60
2018-07-12T10:55:22.072Z,3.30
2018-07-12T10:57:51.412Z,3.67
2018-07-12T11:00:21.017Z,3.50
2018-07-12T11:02:50.402Z,4.00
2018-07-12T11:05:19.884Z,4.43
2018-07-12T11:07:50.128Z,3.43
2018-07-12T11:10:19.498Z,3.70
2018-07-12T11:12:59.880Z,3.60
2018-07-12T11:15:29.273Z,3.63
2018-07-12T11:17:58.676Z,3.63
2018-07-12T11:20:28.236Z,3.63
2018-07-12T11:22:57.620Z,3.40
2018-07-12T11:25:26.992Z,3.37
2018-07-12T11:27:56.320Z,3.43
2018-07-12T11:30:25.687Z,4.40
2018-07-12T11:32:55.020Z,3.70
2018-07-12T11:35:24.424Z,3.30
2018-07-12T11:37:53.966Z,3.77
2018-07-12T11:40:23.335Z,4.07
2018-07-12T11:42:52.696Z,3.60
2018-07-12T11:45:22.261Z,4.00
2018-07-12T11:47:51.649Z,3.20
2018-07-12T11:50:20.999Z,3.40
2018-07-12T11:52:50.401Z,3.60
2018-07-12T11:55:19.896Z,3.73
2018-07-12T11:57:49.218Z,3.20
2018-07-12T12:00:18.580Z,3.37
2018-07-12T12:02:47.935Z,3.97
2018-07-12T12:05:17.770Z,4.20
2018-07-12T12:07:47.231Z,3.57
2018-07-12T12:10:18.202Z,3.57
2018-07-12T12:12:47.606Z,3.47
2018-07-12T12:15:18.364Z,3.40
2018-07-12T12:17:48.988Z,3.33
2018-07-12T12:20:19.308Z,4.50
2018-07-12T12:22:49.330Z,3.53
2018-07-12T12:25:19.306Z,3.20
2018-07-12T12:27:48.649Z,3.60
2018-07-12T12:30:19.705Z,3.57
2018-07-12T12:32:49.072Z,5.10
2018-07-12T12:35:18.564Z,3.57
2018-07-12T12:37:48.056Z,3.63
2018-07-12T12:40:17.443Z,3.37
2018-07-12T12:42:46.788Z,4.33
2018-07-12T12:45:16.809Z,4.00
2018-07-12T12:47:46.180Z,3.27
2018-07-12T12:50:15.532Z,3.87
2018-07-12T12:52:45.489Z,3.73
2018-07-12T12:55:17.295Z,3.37
2018-07-12T12:57:46.696Z,3.60
2018-07-12T13:00:16.371Z,3.37
2018-07-12T13:02:48.058Z,3.77
2018-07-12T13:05:17.461Z,3.60
2018-07-12T13:07:46.794Z,2.83
2018-07-12T13:10:16.585Z,3.63
2018-07-12T13:12:46.000Z,4.00
2018-07-12T13:15:15.722Z,3.17
2018-07-12T13:17:45.100Z,3.13
2018-07-12T13:20:23.716Z,3.00
2018-07-12T13:22:53.141Z,2.90
2018-07-12T13:25:22.710Z,3.13
2018-07-12T13:27:52.229Z,3.23
2018-07-12T13:30:22.298Z,3.17
2018-07-12T13:32:52.193Z,3.73
2018-07-12T13:35:21.746Z,3.10
2018-07-12T13:37:51.093Z,3.17
2018-07-12T13:40:20.451Z,3.07
2018-07-12T13:42:49.802Z,2.83
2018-07-12T13:45:19.247Z,2.80
2018-07-12T13:47:48.601Z,3.00
2018-07-12T13:50:18.011Z,2.30
2018-07-12T13:52:47.718Z,2.80
2018-07-12T13:55:17.625Z,2.63
2018-07-12T13:57:47.246Z,2.80
2018-07-12T14:00:16.894Z,2.80
2018-07-12T14:02:46.239Z,2.23
2018-07-12T14:05:15.692Z,2.47
2018-07-12T14:07:45.064Z,3.17
2018-07-12T14:10:14.656Z,3.30
2018-07-12T14:12:44.059Z,2.87
2018-07-12T14:15:16.016Z,2.80
2018-07-12T14:17:48.190Z,2.80
2018-07-12T14:20:18.278Z,2.97
2018-07-12T14:22:48.222Z,2.70
2018-07-12T14:25:17.589Z,2.30
2018-07-12T14:27:46.965Z,2.50
2018-07-12T14:30:24.236Z,2.70
2018-07-12T14:32:53.623Z,2.90
2018-07-12T14:35:23.232Z,2.30
2018-07-12T14:37:53.217Z,3.40
2018-07-12T14:40:22.585Z,2.60
2018-07-12T14:42:54.131Z,2.47
2018-07-12T14:45:23.998Z,2.60
2018-07-12T14:47:53.444Z,2.53
2018-07-12T14:50:22.811Z,2.80
2018-07-12T14:52:52.159Z,2.70
2018-07-12T14:55:22.373Z,2.93
2018-07-12T14:57:52.456Z,2.40
2018-07-12T15:00:22.368Z,2.40
2018-07-12T15:02:51.748Z,2.30
2018-07-12T15:05:21.432Z,2.60
2018-07-12T15:07:50.837Z,2.60
2018-07-12T15:10:20.195Z,2.00
2018-07-12T15:12:50.109Z,2.30
2018-07-12T15:15:20.524Z,2.40
2018-07-12T15:17:50.446Z,2.40
2018-07-12T15:20:19.824Z,2.60
2018-07-12T15:22:49.869Z,2.33
2018-07-12T15:25:19.218Z,2.43
2018-07-12T15:27:49.252Z,2.70
2018-07-12T15:30:18.774Z,2.47
2018-07-12T15:32:48.108Z,2.67
2018-07-12T15:35:24.400Z,2.80
2018-07-12T15:37:53.740Z,2.27
2018-07-12T15:40:24.053Z,2.33
2018-07-12T15:42:53.951Z,2.40
2018-07-12T15:45:24.022Z,2.30
2018-07-12T15:47:53.400Z,2.23
2018-07-12T15:50:24.904Z,2.80
2018-07-12T15:52:54.260Z,2.17
2018-07-12T15:58:05.581Z,2.30
2018-07-12T16:00:36.591Z,2.70
2018-07-12T16:03:07.902Z,3.07
2018-07-12T16:05:38.315Z,2.53
2018-07-12T16:08:08.198Z,2.37
2018-07-12T16:10:37.806Z,2.43
2018-07-12T16:13:07.188Z,2.23
2018-07-12T16:15:38.377Z,2.00
2018-07-12T16:18:07.722Z,2.50
2018-07-12T16:20:37.096Z,2.10
2018-07-12T16:23:06.479Z,1.87
2018-07-12T16:25:35.800Z,2.73
2018-07-12T16:28:06.544Z,1.90
2018-07-12T16:30:35.879Z,2.30
2018-07-12T16:33:05.220Z,2.30
2018-07-12T16:35:34.561Z,2.77
2018-07-12T16:38:04.281Z,2.00
2018-07-12T16:40:33.854Z,2.07
2018-07-12T16:43:03.252Z,2.57
2018-07-12T16:45:32.944Z,2.47
2018-07-12T16:48:02.273Z,2.53
2018-07-12T16:50:31.647Z,2.07
2018-07-12T16:53:01.014Z,2.07
2018-07-12T16:55:30.335Z,2.83
2018-07-12T16:57:59.697Z,1.93
2018-07-12T17:00:29.087Z,2.67
2018-07-12T17:02:58.477Z,2.27
2018-07-12T17:05:27.839Z,2.00
2018-07-12T17:07:57.236Z,2.00
2018-07-12T17:10:26.672Z,2.07
2018-07-12T17:12:56.058Z,2.10
2018-07-12T17:15:26.740Z,1.93
2018-07-12T17:17:56.121Z,2.07
2018-07-12T17:20:25.780Z,2.67
2018-07-12T17:22:55.200Z,2.27
2018-07-12T17:25:24.566Z,2.20
2018-07-12T17:27:54.004Z,2.10
2018-07-12T17:30:23.433Z,3.07
2018-07-12T17:32:52.872Z,2.00
2018-07-12T17:35:22.250Z,2.00
2018-07-12T17:37:51.588Z,2.30
2018-07-12T17:40:21.141Z,1.97
2018-07-12T17:42:50.499Z,2.20
2018-07-12T17:45:19.828Z,1.97
2018-07-12T17:47:49.924Z,1.67
2018-07-12T17:50:19.816Z,1.60
2018-07-12T17:52:49.184Z,2.00
2018-07-12T17:55:18.831Z,2.20
2018-07-12T17:57:48.249Z,1.70
2018-07-12T18:00:17.552Z,2.30
2018-07-12T18:02:47.090Z,1.90
2018-07-12T18:05:16.721Z,1.97
2018-07-12T18:07:46.145Z,2.27
2018-07-12T18:10:16.127Z,2.43
2018-07-12T18:12:45.612Z,2.17
2018-07-12T18:15:15.896Z,2.07
2018-07-12T18:17:45.283Z,2.43
2018-07-12T18:20:15.440Z,2.30
2018-07-12T18:22:44.794Z,2.37
2018-07-12T18:25:15.925Z,2.67
2018-07-12T18:27:45.263Z,2.10
2018-07-12T18:30:14.868Z,2.10
2018-07-12T18:32:44.288Z,2.70
2018-07-12T18:35:15.971Z,2.27
2018-07-12T18:37:45.518Z,2.63
2018-07-12T18:40:14.885Z,2.73
2018-07-12T18:42:44.327Z,2.40
2018-07-12T18:45:15.862Z,2.30
2018-07-12T18:47:45.239Z,2.30
2018-07-12T18:50:14.980Z,2.20
2018-07-12T18:52:45.004Z,3.33
2018-07-12T18:55:17.696Z,2.37
2018-07-12T18:57:47.048Z,2.70
2018-07-12T19:00:16.441Z,2.60
2018-07-12T19:02:45.913Z,2.20
2018-07-12T19:05:15.624Z,3.27
2018-07-12T19:07:44.948Z,2.67
2018-07-12T19:10:15.922Z,2.37
2018-07-12T19:12:45.333Z,2.50
2018-07-12T19:15:16.101Z,2.43
2018-07-12T19:17:45.600Z,3.00
2018-07-12T19:20:16.205Z,2.73
2018-07-12T19:22:45.621Z,2.53
2018-07-12T19:25:15.713Z,3.03
2018-07-12T19:27:45.031Z,2.80
2018-07-12T19:30:16.369Z,3.53
2018-07-12T19:32:45.800Z,2.67
2018-07-12T19:35:15.260Z,2.93
2018-07-12T19:37:44.707Z,3.67
2018-07-12T19:40:15.548Z,2.73
2018-07-12T19:42:44.940Z,3.40
2018-07-12T19:45:16.224Z,2.73
2018-07-12T19:47:45.603Z,3.40
2018-07-12T19:50:16.832Z,2.90
2018-07-12T19:52:46.317Z,3.20
2018-07-12T19:55:16.009Z,2.80
2018-07-12T19:57:45.448Z,3.53
2018-07-12T20:00:15.335Z,3.13
2018-07-12T20:02:44.986Z,3.40
2018-07-12T20:05:16.174Z,3.40
2018-07-12T20:07:45.568Z,3.33
2018-07-12T20:10:16.004Z,2.73
2018-07-12T20:12:45.395Z,3.80
2018-07-12T20:15:16.364Z,2.87
2018-07-12T20:17:47.661Z,3.30
2018-07-12T20:20:18.337Z,3.20
2018-07-12T20:22:47.682Z,3.33
2018-07-12T20:25:17.162Z,3.30
2018-07-12T20:27:46.671Z,3.83
2018-07-12T20:30:16.044Z,2.70
2018-07-12T20:32:45.448Z,4.00
2018-07-12T20:35:15.065Z,2.93
2018-07-12T20:37:44.561Z,3.03
2018-07-12T20:40:14.608Z,2.27
2018-07-12T20:42:43.967Z,3.10
2018-07-12T20:45:16.255Z,5.07
2018-07-12T20:47:47.552Z,3.10
2018-07-12T20:50:17.073Z,2.60
2018-07-12T20:52:46.548Z,3.53
2018-07-12T20:55:16.971Z,2.70
2018-07-12T20:57:46.451Z,3.27
2018-07-12T21:00:35.418Z,2.63
2018-07-12T21:03:04.767Z,2.90
2018-07-12T21:05:34.110Z,3.13
2018-07-12T21:08:03.424Z,3.07
2018-07-12T21:10:32.804Z,3.63
2018-07-12T21:13:02.916Z,2.87
2018-07-12T21:15:32.331Z,3.27
2018-07-12T21:18:01.876Z,2.70
2018-07-12T21:20:31.207Z,3.63
2018-07-12T21:23:00.560Z,2.93
2018-07-12T21:25:30.343Z,3.20
2018-07-12T21:28:00.827Z,3.07
2018-07-12T21:30:30.167Z,2.80
2018-07-12T21:32:59.507Z,3.10
2018-07-12T21:35:28.833Z,3.30
2018-07-12T21:37:58.236Z,3.40
2018-07-12T21:40:27.596Z,2.73
2018-07-12T21:42:57.241Z,2.70
2018-07-12T21:45:26.588Z,4.00
2018-07-12T21:47:56.710Z,3.90
2018-07-12T21:50:35.179Z,3.57
2018-07-12T21:53:05.838Z,2.90
2018-07-12T21:55:35.209Z,2.27
2018-07-12T21:58:04.676Z,2.83
2018-07-12T22:00:34.140Z,2.80
2018-07-12T22:03:03.498Z,3.13
2018-07-12T22:05:33.089Z,2.90
2018-07-12T22:08:15.290Z,2.57
2018-07-12T22:10:45.515Z,2.67
2018-07-12T22:13:15.454Z,2.50
2018-07-12T22:15:45.169Z,3.13
2018-07-12T22:18:14.496Z,3.13
2018-07-12T22:20:44.168Z,2.93
2018-07-12T22:23:14.121Z,4.83
2018-07-12T22:25:43.996Z,3.20
2018-07-12T22:28:13.342Z,3.00
2018-07-12T22:30:42.666Z,2.70
2018-07-12T22:33:12.075Z,2.90
2018-07-12T22:35:41.471Z,3.10
2018-07-12T22:38:10.819Z,3.60
2018-07-12T22:40:40.216Z,2.97
2018-07-12T22:43:10.560Z,2.90
2018-07-12T22:45:40.955Z,2.70
2018-07-12T22:48:10.301Z,2.70
2018-07-12T22:50:39.873Z,2.90
2018-07-12T22:53:09.211Z,2.73
2018-07-12T22:55:38.577Z,2.67
2018-07-12T22:58:07.955Z,3.37
2018-07-12T23:00:37.289Z,2.67
2018-07-12T23:03:06.631Z,2.63
2018-07-12T23:05:35.975Z,2.83
2018-07-12T23:08:05.342Z,2.73
2018-07-12T23:10:35.560Z,3.30
2018-07-12T23:13:04.902Z,3.17
2018-07-12T23:15:34.220Z,4.10
2018-07-12T23:18:04.329Z,3.00
2018-07-12T23:20:35.347Z,3.27
2018-07-12T23:23:04.699Z,3.17
2018-07-12T23:25:34.392Z,2.90
2018-07-12T23:28:03.895Z,3.47
2018-07-12T23:30:33.240Z,3.00
2018-07-12T23:33:02.588Z,2.93
2018-07-12T23:35:31.920Z,3.10
2018-07-12T23:38:01.292Z,3.30
2018-07-12T23:40:32.069Z,3.63
2018-07-12T23:43:02.140Z,2.97
2018-07-12T23:45:31.674Z,3.10
2018-07-12T23:48:01.001Z,3.50
2018-07-12T23:50:30.964Z,3.60
2018-07-12T23:53:00.296Z,2.80
2018-07-12T23:55:29.680Z,3.10
2018-07-12T23:57:59.401Z,3.43
